createdAt,value
2022-11-25T00:03:49.912Z,18.05
2022-11-25T00:08:59.982Z,18.09
2022-11-25T00:14:02.353Z,18.03
2022-11-25T00:19:04.182Z,18.00
2022-11-25T00:24:07.526Z,18.13
2022-11-25T00:29:13.202Z,18.07
2022-11-25T00:34:15.646Z,18.05
2022-11-25T00:39:18.783Z,17.99
2022-11-25T00:44:37.754Z,18.10
2022-11-25T00:49:42.957Z,17.96
2022-11-25T00:54:45.130Z,18.06
2022-11-25T00:59:47.433Z,18.01
2022-11-25T01:04:49.204Z,18.12
2022-11-25T01:09:51.374Z,18.04
2022-11-25T01:14:53.081Z,18.07
2022-11-25T01:19:55.030Z,18.01
2022-11-25T01:24:56.890Z,18.06
2022-11-25T01:29:58.836Z,17.96
2022-11-25T01:35:00.702Z,18.05
2022-11-25T01:40:02.580Z,18.12
2022-11-25T01:45:24.619Z,18.04
2022-11-25T01:50:32.344Z,18.07
2022-11-25T01:55:36.901Z,18.05
2022-11-25T02:00:39.368Z,17.99
2022-11-25T02:05:52.976Z,18.02
2022-11-25T02:10:55.859Z,18.10
2022-11-25T02:15:57.833Z,18.04
2022-11-25T02:20:59.862Z,18.05
2022-11-25T02:26:02.378Z,18.01
2022-11-25T02:31:04.673Z,17.99
2022-11-25T02:36:13.086Z,18.00
2022-11-25T02:41:21.018Z,18.06
2022-11-25T02:46:25.247Z,17.98
2022-11-25T02:51:30.127Z,17.94
2022-11-25T02:56:34.606Z,18.00
2022-11-25T03:01:38.541Z,17.99
2022-11-25T03:06:40.887Z,17.93
2022-11-25T03:12:01.539Z,18.01
2022-11-25T03:17:03.500Z,17.98
2022-11-25T03:22:05.627Z,17.88
2022-11-25T03:27:07.625Z,18.07
2022-11-25T03:32:10.011Z,17.95
2022-11-25T03:37:12.149Z,17.95
2022-11-25T03:42:14.431Z,17.96
2022-11-25T03:47:16.549Z,18.00
2022-11-25T03:52:18.995Z,18.06
2022-11-25T03:57:20.879Z,18.05
2022-11-25T04:02:23.386Z,18.04
2022-11-25T04:07:25.407Z,18.01
2022-11-25T04:12:45.784Z,18.07
2022-11-25T04:17:47.778Z,17.97
2022-11-25T04:22:49.757Z,18.08
2022-11-25T04:27:52.139Z,17.89
2022-11-25T04:32:54.156Z,18.04
2022-11-25T04:37:56.242Z,18.05
2022-11-25T04:43:03.473Z,18.04
2022-11-25T04:48:08.173Z,18.04
2022-11-25T04:53:10.206Z,18.11
2022-11-25T04:58:12.339Z,17.98
2022-11-25T05:03:14.532Z,18.08
2022-11-25T05:08:16.358Z,17.99
2022-11-25T05:13:18.257Z,18.10
2022-11-25T05:18:20.226Z,17.98
2022-11-25T05:23:22.118Z,18.02
2022-11-25T05:28:24.036Z,18.03
2022-11-25T05:33:26.236Z,18.06
2022-11-25T05:38:28.668Z,18.03
2022-11-25T05:43:30.700Z,18.03
2022-11-25T05:48:32.628Z,18.07
2022-11-25T05:53:34.539Z,18.06
2022-11-25T05:58:36.301Z,17.97
2022-11-25T06:03:38.897Z,18.05
2022-11-25T06:08:41.041Z,18.10
2022-11-25T06:13:44.963Z,18.04
2022-11-25T06:18:47.085Z,17.98
2022-11-25T06:23:49.089Z,18.08
2022-11-25T06:28:54.166Z,18.00
2022-11-25T06:33:56.106Z,18.13
2022-11-25T06:38:58.031Z,18.01
2022-11-25T06:43:59.844Z,17.99
2022-11-25T06:49:02.026Z,18.10
2022-11-25T06:54:04.332Z,18.01
2022-11-25T06:59:07.152Z,18.08
2022-11-25T07:04:09.335Z,18.02
2022-11-25T07:09:11.254Z,17.97
2022-11-25T07:14:15.543Z,18.05
2022-11-25T07:19:19.028Z,18.13
2022-11-25T07:24:21.003Z,18.04
2022-11-25T07:29:50.413Z,18.11
2022-11-25T07:34:45.285Z,17.96
2022-11-25T07:39:47.514Z,17.85
2022-11-25T07:44:49.873Z,17.60
2022-11-25T07:49:51.956Z,17.55
2022-11-25T07:54:54.049Z,17.43
2022-11-25T07:59:55.892Z,17.39
2022-11-25T08:04:57.776Z,17.34
2022-11-25T08:09:59.853Z,17.37
2022-11-25T08:15:01.806Z,17.33
2022-11-25T08:20:04.067Z,17.28
2022-11-25T08:25:06.438Z,17.24
2022-11-25T08:30:09.250Z,17.25
2022-11-25T08:35:11.266Z,17.22
2022-11-25T08:40:14.112Z,17.27
2022-11-25T08:45:16.518Z,17.31
2022-11-25T08:50:19.003Z,17.26
2022-11-25T08:55:22.216Z,17.23
2022-11-25T09:00:24.440Z,17.26
2022-11-25T09:05:26.560Z,17.21
2022-11-25T09:10:28.913Z,17.26
2022-11-25T09:15:31.817Z,17.24
2022-11-25T09:20:34.466Z,17.23
2022-11-25T09:25:37.511Z,17.23
2022-11-25T09:30:39.516Z,17.24
2022-11-25T09:35:41.480Z,17.24
2022-11-25T09:40:58.272Z,17.21
2022-11-25T09:46:43.723Z,17.23
2022-11-25T09:52:02.851Z,17.15
2022-11-25T09:57:20.744Z,17.20
2022-11-25T10:03:07.062Z,17.16
2022-11-25T10:08:21.096Z,17.17
2022-11-25T10:13:35.148Z,17.22
2022-11-25T10:18:45.834Z,17.15
2022-11-25T10:23:47.908Z,17.17
2022-11-25T10:28:57.275Z,17.17
2022-11-25T10:34:01.235Z,17.19
2022-11-25T10:39:24.589Z,17.15
2022-11-25T10:44:38.157Z,17.17
2022-11-25T10:50:19.264Z,17.17
2022-11-25T10:55:27.204Z,17.18
2022-11-25T11:00:37.828Z,17.12
2022-11-25T11:05:49.380Z,17.15
2022-11-25T11:11:21.005Z,17.14
2022-11-25T11:16:37.043Z,17.14
2022-11-25T11:21:42.015Z,17.16
2022-11-25T11:26:43.994Z,17.17
2022-11-25T11:31:51.605Z,17.12
2022-11-25T11:36:59.857Z,17.19
2022-11-25T11:42:12.802Z,17.13
2022-11-25T11:47:17.909Z,17.18
2022-11-25T11:52:55.621Z,17.09
2022-11-25T11:58:31.759Z,17.10
2022-11-25T12:04:04.446Z,17.12
2022-11-25T12:09:15.913Z,17.13
2022-11-25T12:14:46.050Z,17.10
2022-11-25T12:20:14.365Z,17.08
2022-11-25T12:25:23.736Z,17.10
2022-11-25T12:30:36.512Z,17.09
2022-11-25T12:35:47.084Z,17.09
2022-11-25T12:41:01.804Z,17.14
2022-11-25T12:46:29.891Z,17.04
2022-11-25T12:52:25.722Z,17.11
2022-11-25T12:57:59.843Z,17.11
2022-11-25T13:03:34.463Z,17.08
2022-11-25T13:09:06.039Z,17.30
2022-11-25T13:14:20.416Z,17.36
2022-11-25T13:19:22.601Z,17.53
2022-11-25T13:24:31.712Z,17.60
2022-11-25T13:29:39.928Z,17.68
2022-11-25T13:34:41.947Z,17.73
2022-11-25T13:39:46.522Z,17.73
2022-11-25T13:44:56.866Z,17.77
2022-11-25T13:50:08.365Z,17.80
2022-11-25T13:55:16.347Z,17.82
2022-11-25T14:00:18.082Z,17.81
2022-11-25T14:05:44.694Z,17.85
2022-11-25T14:11:16.118Z,17.84
2022-11-25T14:16:39.382Z,17.80
2022-11-25T14:21:47.347Z,17.82
2022-11-25T14:26:52.320Z,17.96
2022-11-25T14:31:58.810Z,17.86
2022-11-25T14:37:29.239Z,17.81
2022-11-25T14:42:39.662Z,17.86
2022-11-25T14:47:41.376Z,17.94
2022-11-25T14:52:44.335Z,17.94
2022-11-25T14:57:46.940Z,17.94
2022-11-25T15:03:03.448Z,17.91
2022-11-25T15:08:08.707Z,17.94
2022-11-25T15:13:22.784Z,17.87
2022-11-25T15:18:25.639Z,17.98
2022-11-25T15:23:34.921Z,17.92
2022-11-25T15:28:38.056Z,17.90
2022-11-25T15:33:41.217Z,17.93
2022-11-25T15:38:46.345Z,17.94
2022-11-25T15:43:52.286Z,17.94
2022-11-25T15:48:58.936Z,17.91
2022-11-25T15:54:06.004Z,17.98
2022-11-25T15:59:47.988Z,17.86
2022-11-25T16:04:49.777Z,17.87
2022-11-25T16:09:51.951Z,17.83
2022-11-25T16:14:53.618Z,17.86
2022-11-25T16:19:55.379Z,17.96
2022-11-25T16:25:02.103Z,18.04
2022-11-25T16:30:04.451Z,18.08
2022-11-25T16:35:15.364Z,18.11
2022-11-25T16:40:19.022Z,17.99
2022-11-25T16:45:23.398Z,18.00
2022-11-25T16:50:25.369Z,18.01
2022-11-25T16:55:27.244Z,17.98
2022-11-25T17:00:29.309Z,17.84
2022-11-25T17:05:31.111Z,17.58
2022-11-25T17:10:33.071Z,17.46
2022-11-25T17:15:38.211Z,17.48
2022-11-25T17:20:40.343Z,17.47
2022-11-25T17:25:46.886Z,17.47
2022-11-25T17:30:48.953Z,17.55
2022-11-25T17:35:50.759Z,17.65
2022-11-25T17:40:52.986Z,17.58
2022-11-25T17:45:54.970Z,17.59
2022-11-25T17:50:56.813Z,17.60
2022-11-25T17:56:01.927Z,17.77
2022-11-25T18:01:04.022Z,17.79
2022-11-25T18:06:06.805Z,17.78
2022-11-25T18:11:08.628Z,17.91
2022-11-25T18:16:11.443Z,17.96
2022-11-25T18:21:14.531Z,17.86
2022-11-25T18:26:16.416Z,17.97
2022-11-25T18:31:18.450Z,17.80
2022-11-25T18:36:20.264Z,17.82
2022-11-25T18:41:22.288Z,17.95
2022-11-25T18:46:24.261Z,17.61
2022-11-25T18:51:26.233Z,17.79
2022-11-25T18:56:28.249Z,17.86
2022-11-25T19:01:30.515Z,18.14
2022-11-25T19:06:32.667Z,18.07
2022-11-25T19:11:38.071Z,17.98
2022-11-25T19:16:41.485Z,17.74
2022-11-25T19:21:43.649Z,17.57
2022-11-25T19:26:51.555Z,17.72
2022-11-25T19:31:54.722Z,18.12
2022-11-25T19:36:56.549Z,18.07
2022-11-25T19:41:58.263Z,18.18
2022-11-25T19:47:14.967Z,18.26
2022-11-25T19:52:20.705Z,18.13
2022-11-25T19:57:24.341Z,18.16
2022-11-25T20:02:26.992Z,18.18
2022-11-25T20:07:31.266Z,18.08
2022-11-25T20:12:33.254Z,18.18
2022-11-25T20:17:37.819Z,18.13
2022-11-25T20:23:12.771Z,18.13
2022-11-25T20:28:19.622Z,18.17
2022-11-25T20:33:24.732Z,18.00
2022-11-25T20:38:30.220Z,18.08
2022-11-25T20:43:37.038Z,18.18
2022-11-25T20:48:39.166Z,18.08
2022-11-25T20:53:45.208Z,18.20
2022-11-25T20:58:47.605Z,18.18
2022-11-25T21:03:49.986Z,18.11
2022-11-25T21:08:53.187Z,18.18
2022-11-25T21:13:55.500Z,18.23
2022-11-25T21:18:57.342Z,17.77
2022-11-25T21:24:25.849Z,17.83
2022-11-25T21:29:28.583Z,18.01
2022-11-25T21:34:30.426Z,18.04
2022-11-25T21:39:34.094Z,18.15
2022-11-25T21:44:40.897Z,18.22
2022-11-25T21:49:42.917Z,18.12
2022-11-25T21:54:45.503Z,18.14
2022-11-25T21:59:47.762Z,18.04
2022-11-25T22:04:50.681Z,18.12
2022-11-25T22:09:52.553Z,18.16
2022-11-25T22:14:55.176Z,18.06
2022-11-25T22:19:57.588Z,18.17
2022-11-25T22:24:59.457Z,17.82
2022-11-25T22:30:01.220Z,18.00
2022-11-25T22:35:03.204Z,17.85
2022-11-25T22:40:05.577Z,17.76
2022-11-25T22:45:13.998Z,17.81
2022-11-25T22:50:18.497Z,17.82
2022-11-25T22:55:27.794Z,18.02
2022-11-25T23:00:36.045Z,18.00
2022-11-25T23:05:39.881Z,18.29
2022-11-25T23:10:42.615Z,18.06
2022-11-25T23:15:55.597Z,18.33
2022-11-25T23:20:57.846Z,18.25
2022-11-25T23:25:59.784Z,18.31
2022-11-25T23:31:02.720Z,18.32
2022-11-25T23:36:27.356Z,18.41
2022-11-25T23:41:32.225Z,18.31
2022-11-25T23:46:34.959Z,18.35
2022-11-25T23:51:37.402Z,18.37
2022-11-25T23:56:39.297Z,18.37
